PWSweather.com
Personal Weather Stations
Station Observations
SEVANL01
SevillaES 41004

SevillaES 41004

Lat: 37.383633, Lon: -5.985787

Elevation: 19.685

Station Type: Davis Vantage Pro2

Latest ConditionsUpdated 3:00:00 PM GMT+01:01 Monday, Jun 26, 2017
Currently Today's Max Today's Min Today's Average
Temperature 90.8°F32.7°C 90.8°F32.7°C 73.1°F22.8°C 80.0°F26.7°C
Dew Point 50.1°F10.1°C 63.0°F17.2°C 50.1°F10.1°C 57.4°F14.1°C
Winds 6.3 mph SSW10.1 kmh SSW 6.3 mph SSW10.1 kmh SSW - 3.0 mph 4.8 kmh
Wind Gusts 16.0 mph25.7 kmh 16.0 mph25.7 kmh - -
Humidity 25% 70% 25% 47%
Pressure 29.84 in1010.5 mb 29.89 in1012.2 mb 29.83 in1010.2 mb -
Hour Temp Dew Point Humidity Winds Wind Gusts Pressure Precip Precip Rate Daily Precip Total
03:00 PM 90.8°F32.7°C 50.1°F10.1°C 25% 6.3 mph SSW10.1 kmh SSW 16.0 mph25.7 kmh 29.84 in1010.5 mb 0.00 in0.0 mm 0.00 in0.0 mm 0.00 in0.0 mm
02:40 PM 89.9°F32.2°C 51.4°F10.8°C 27% 5.0 mph SW8.0 kmh SW 13.0 mph20.9 kmh 29.85 in1010.8 mb 0.00 in0.0 mm 0.00 in0.0 mm 0.00 in0.0 mm
02:20 PM 89.0°F31.7°C 52.6°F11.4°C 29% 5.9 mph SSW9.5 kmh SSW 15.0 mph24.1 kmh 29.85 in1010.8 mb 0.00 in0.0 mm 0.00 in0.0 mm 0.00 in0.0 mm
02:00 PM 88.5°F31.4°C 54.9°F12.7°C 32% 5.8 mph SSW9.3 kmh SSW 14.0 mph22.5 kmh 29.86 in1011.2 mb 0.00 in0.0 mm 0.00 in0.0 mm 0.00 in0.0 mm
01:40 PM 88.3°F31.3°C 58.0°F14.4°C 36% 6.0 mph SSW9.7 kmh SSW 14.0 mph22.5 kmh 29.86 in1011.2 mb 0.00 in0.0 mm 0.00 in0.0 mm 0.00 in0.0 mm
01:20 PM 87.7°F30.9°C 56.7°F13.7°C 35% 5.3 mph SSW8.5 kmh SSW 16.0 mph25.7 kmh 29.87 in1011.5 mb 0.00 in0.0 mm 0.00 in0.0 mm 0.00 in0.0 mm
01:00 PM 87.1°F30.6°C 59.1°F15.1°C 39% 5.0 mph SSW8.0 kmh SSW 11.0 mph17.7 kmh 29.87 in1011.5 mb 0.00 in0.0 mm 0.00 in0.0 mm 0.00 in0.0 mm
12:40 PM 86.1°F30.1°C 58.2°F14.6°C 39% 5.5 mph SSW8.9 kmh SSW 14.0 mph22.5 kmh 29.88 in1011.9 mb 0.00 in0.0 mm 0.00 in0.0 mm 0.00 in0.0 mm
12:20 PM 85.3°F29.6°C 58.9°F14.9°C 41% 5.7 mph S9.2 kmh S 16.0 mph25.7 kmh 29.88 in1011.9 mb 0.00 in0.0 mm 0.00 in0.0 mm 0.00 in0.0 mm
12:00 PM 85.2°F29.6°C 57.4°F14.1°C 39% 5.0 mph S8.0 kmh S 11.0 mph17.7 kmh 29.89 in1012.2 mb 0.00 in0.0 mm 0.00 in0.0 mm 0.00 in0.0 mm
11:40 AM 84.2°F29.0°C 57.9°F14.4°C 41% 4.1 mph SSW6.6 kmh SSW 14.0 mph22.5 kmh 29.88 in1011.9 mb 0.00 in0.0 mm 0.00 in0.0 mm 0.00 in0.0 mm
11:20 AM 83.1°F28.4°C 57.6°F14.2°C 42% 4.2 mph SW6.8 kmh SW 10.0 mph16.1 kmh 29.88 in1011.9 mb 0.00 in0.0 mm 0.00 in0.0 mm 0.00 in0.0 mm
11:00 AM 82.4°F28.0°C 60.7°F15.9°C 48% 3.9 mph SSW6.3 kmh SSW 9.0 mph14.5 kmh 29.88 in1011.9 mb 0.00 in0.0 mm 0.00 in0.0 mm 0.00 in0.0 mm
10:40 AM 80.8°F27.1°C 60.4°F15.8°C 50% 4.2 mph SW6.8 kmh SW 10.0 mph16.1 kmh 29.89 in1012.2 mb 0.00 in0.0 mm 0.00 in0.0 mm 0.00 in0.0 mm
10:20 AM 80.4°F26.9°C 60.1°F15.6°C 50% 3.0 mph SW4.8 kmh SW 8.0 mph12.9 kmh 29.88 in1011.9 mb 0.00 in0.0 mm 0.00 in0.0 mm 0.00 in0.0 mm
10:00 AM 79.6°F26.4°C 62.0°F16.7°C 55% 2.4 mph S3.9 kmh S 9.0 mph14.5 kmh 29.88 in1011.9 mb 0.00 in0.0 mm 0.00 in0.0 mm 0.00 in0.0 mm
09:40 AM 77.7°F25.4°C 58.7°F14.8°C 52% 2.5 mph WSW4.0 kmh WSW 7.0 mph11.3 kmh 29.89 in1012.2 mb 0.00 in0.0 mm 0.00 in0.0 mm 0.00 in0.0 mm
09:20 AM 77.0°F25.0°C 58.6°F14.8°C 53% 1.9 mph NW3.1 kmh NW 5.0 mph8.0 kmh 29.88 in1011.9 mb 0.00 in0.0 mm 0.00 in0.0 mm 0.00 in0.0 mm
09:00 AM 76.7°F24.8°C 58.8°F14.9°C 54% 1.6 mph WSW2.6 kmh WSW 4.0 mph6.4 kmh 29.88 in1011.9 mb 0.00 in0.0 mm 0.00 in0.0 mm 0.00 in0.0 mm
08:40 AM 75.8°F24.3°C 59.0°F15.0°C 56% 2.8 mph NE4.5 kmh NE 5.0 mph8.0 kmh 29.88 in1011.9 mb 0.00 in0.0 mm 0.00 in0.0 mm 0.00 in0.0 mm
08:20 AM 74.7°F23.7°C 58.0°F14.4°C 56% 3.5 mph NE5.6 kmh NE 7.0 mph11.3 kmh 29.87 in1011.5 mb 0.00 in0.0 mm 0.00 in0.0 mm 0.00 in0.0 mm
08:00 AM 74.0°F23.3°C 57.8°F14.3°C 57% 2.3 mph NW3.7 kmh NW 4.0 mph6.4 kmh 29.87 in1011.5 mb 0.00 in0.0 mm 0.00 in0.0 mm 0.00 in0.0 mm
07:40 AM 73.7°F23.2°C 57.5°F14.2°C 57% 2.1 mph NW3.4 kmh NW 5.0 mph8.0 kmh 29.86 in1011.2 mb 0.00 in0.0 mm 0.00 in0.0 mm 0.00 in0.0 mm
07:20 AM 74.0°F23.3°C 57.3°F14.1°C 56% 2.1 mph NNW3.4 kmh NNW 5.0 mph8.0 kmh 29.86 in1011.2 mb 0.00 in0.0 mm 0.00 in0.0 mm 0.00 in0.0 mm
07:00 AM 73.7°F23.2°C 57.5°F14.2°C 57% 2.4 mph N3.9 kmh N 5.0 mph8.0 kmh 29.86 in1011.2 mb 0.00 in0.0 mm 0.00 in0.0 mm 0.00 in0.0 mm
06:40 AM 74.2°F23.4°C 57.5°F14.2°C 56% 2.0 mph NNW3.2 kmh NNW 5.0 mph8.0 kmh 29.86 in1011.2 mb 0.00 in0.0 mm 0.00 in0.0 mm 0.00 in0.0 mm
06:20 AM 73.1°F22.8°C 60.6°F15.9°C 65% 2.0 mph NW3.2 kmh NW 4.0 mph6.4 kmh 29.86 in1011.2 mb 0.00 in0.0 mm 0.00 in0.0 mm 0.00 in0.0 mm
06:00 AM 73.4°F23.0°C 63.0°F17.2°C 70% 0.6 mph WSW1.0 kmh WSW 3.0 mph4.8 kmh 29.85 in1010.8 mb 0.00 in0.0 mm 0.00 in0.0 mm 0.00 in0.0 mm
05:40 AM 73.3°F22.9°C 62.1°F16.7°C 68% 1.3 mph WSW2.1 kmh WSW 3.0 mph4.8 kmh 29.84 in1010.5 mb 0.00 in0.0 mm 0.00 in0.0 mm 0.00 in0.0 mm
05:20 AM 74.1°F23.4°C 62.0°F16.7°C 66% 1.4 mph S2.3 kmh S 4.0 mph6.4 kmh 29.84 in1010.5 mb 0.00 in0.0 mm 0.00 in0.0 mm 0.00 in0.0 mm
05:00 AM 74.5°F23.6°C 60.6°F15.9°C 62% 2.5 mph SSE4.0 kmh SSE 6.0 mph9.7 kmh 29.84 in1010.5 mb 0.00 in0.0 mm 0.00 in0.0 mm 0.00 in0.0 mm
04:40 AM 75.5°F24.2°C 56.1°F13.4°C 51% Calm Calm 3.0 mph4.8 kmh 29.84 in1010.5 mb 0.00 in0.0 mm 0.00 in0.0 mm 0.00 in0.0 mm
04:20 AM 75.1°F23.9°C 55.7°F13.2°C 51% 1.2 mph NE1.9 kmh NE 2.0 mph3.2 kmh 29.84 in1010.5 mb 0.00 in0.0 mm 0.00 in0.0 mm 0.00 in0.0 mm
04:00 AM 75.4°F24.1°C 56.0°F13.3°C 51% 3.2 mph N5.1 kmh N 6.0 mph9.7 kmh 29.84 in1010.5 mb 0.00 in0.0 mm 0.00 in0.0 mm 0.00 in0.0 mm
03:40 AM 76.5°F24.7°C 55.9°F13.3°C 49% 3.4 mph N5.5 kmh N 8.0 mph12.9 kmh 29.83 in1010.2 mb 0.00 in0.0 mm 0.00 in0.0 mm 0.00 in0.0 mm
03:20 AM 78.2°F25.7°C 56.9°F13.8°C 48% 1.2 mph NNE1.9 kmh NNE 5.0 mph8.0 kmh 29.83 in1010.2 mb 0.00 in0.0 mm 0.00 in0.0 mm 0.00 in0.0 mm
03:00 AM 78.8°F26.0°C 56.3°F13.5°C 46% 2.0 mph ENE3.2 kmh ENE 4.0 mph6.4 kmh 29.83 in1010.2 mb 0.00 in0.0 mm 0.00 in0.0 mm 0.00 in0.0 mm
02:40 AM 79.3°F26.3°C 56.1°F13.4°C 45% 2.0 mph E3.2 kmh E 7.0 mph11.3 kmh 29.83 in1010.2 mb 0.00 in0.0 mm 0.00 in0.0 mm 0.00 in0.0 mm
02:20 AM 79.5°F26.4°C 56.3°F13.5°C 45% 2.4 mph NNW3.9 kmh NNW 4.0 mph6.4 kmh 29.84 in1010.5 mb 0.00 in0.0 mm 0.00 in0.0 mm 0.00 in0.0 mm
02:00 AM 80.2°F26.8°C 55.7°F13.2°C 43% 3.0 mph N4.8 kmh N 5.0 mph8.0 kmh 29.85 in1010.8 mb 0.00 in0.0 mm 0.00 in0.0 mm 0.00 in0.0 mm
01:40 AM 80.4°F26.9°C 55.2°F12.9°C 42% 3.0 mph NNE4.8 kmh NNE 5.0 mph8.0 kmh 29.85 in1010.8 mb 0.00 in0.0 mm 0.00 in0.0 mm 0.00 in0.0 mm
01:20 AM 80.9°F27.2°C 55.0°F12.8°C 41% 2.2 mph N3.5 kmh N 5.0 mph8.0 kmh 29.85 in1010.8 mb 0.00 in0.0 mm 0.00 in0.0 mm 0.00 in0.0 mm
01:00 AM 81.6°F27.6°C 55.6°F13.1°C 41% 2.0 mph N3.2 kmh N 4.0 mph6.4 kmh 29.85 in1010.8 mb 0.00 in0.0 mm 0.00 in0.0 mm 0.00 in0.0 mm
12:40 AM 83.1°F28.4°C 55.6°F13.1°C 39% Calm Calm 4.0 mph6.4 kmh 29.86 in1011.2 mb 0.00 in0.0 mm 0.00 in0.0 mm 0.00 in0.0 mm
12:20 AM 82.9°F28.3°C 55.4°F13.0°C 39% 1.0 mph WNW1.6 kmh WNW 2.0 mph3.2 kmh 29.86 in1011.2 mb 0.00 in0.0 mm 0.00 in0.0 mm 0.00 in0.0 mm
12:00 AM 83.2°F28.4°C 55.7°F13.2°C 39% 1.0 mph WNW1.6 kmh WNW 3.0 mph4.8 kmh 29.86 in1011.2 mb 0.00 in0.0 mm 0.00 in0.0 mm 0.00 in0.0 mm